Portada
METAR-TAF:

METAR-TAF

Aeroports :

Deauville, França

latitud: 49-21-55N, longitud: 000-09-16E, altitud: 146 m

Observació

L'informe es va fer fa 48 minuts, a les 22:30 UTC
Vent 5 kt del Sud-Oest, variant entre Sud i Oest/Sud-Oest
Temperatura 4°C
Humitat 81%
Pressió 1017 hPa
Visibilitat 10 km o més
Cel ennuvolat a una alçada de 3600 ft

METAR: LFRG 272230Z AUTO 22005KT 190V250 9999 BKN036 04/01 Q1017

Hora: 00:18 (23:18 UTC)

Pronòstic

L'informe es va fer fa 9 hores i 18 minuts, a les 14:00 UTC
Pronòstic vàlid del 27 a les 15 UTC al 27 a les 24 UTC
Vent 15 kt del Nord-Oest amb ràfegues de 30 kt
Visibilitat 10 km o més
Núvols disperses a una alçada de 2000 ft
Evolucionant progressivament
l' 27 a les 17 UTC al 27 a les 19 UTC
Vent 10 kt del Nord-Oest
Evolucionant progressivament
l' 27 a les 21 UTC al 27 a les 23 UTC
Vent 7 kt del Sud-Oest

TAF: LFRG 271400Z 2715/2724 32015G30KT 9999 SCT020 BECMG 2717/2719 31010KT BECMG 2721/2723 23007KT

Observacions i pronòstics meteorològics de més de 4000 aeroports (METAR i TAF).

Les estacions disponibles són els punts grocs i vermells al mapa.

Posi el ratolí al punt desitjat per veure el nom de l'estació.

Feu clic per veure les observacions i els pronòstics meteorològics.

Per canviar el mapa: feu clic els botons verds amb una creu de color negre per apropar; al botó verd amb un guió per allunyar la imatge; o en les fletxes verdes per a mapes adjacents.


METAR-TAF: